Time;durP1;ratioP1;P1;durP2;ratioP2;P2;SDS_P1;SDS_P2;PMS_P1;PMS_P2;Temp;Humidity;BMP_temperature;BMP_pressure;BME280_temperature;BME280_humidity;BME280_pressure;Samples;Min_cycle;Max_cycle;Signal;HPM_P1;HPM_P2
2024/02/29 07:20:13;;;;;;;13.70;9.88;;;;;;;;;;12696861;23;20102;-86
2024/02/29 07:48:50;;;;;;;11.15;5.85;;;;;;;;;;12708696;23;20406;-86
2024/02/29 07:54:14;;;;;;;5.93;3.30;;;;;;;;;;12485836;23;20018;-84
2024/02/29 07:59:33;;;;;;;10.57;6.50;;;;;;;;;;12371148;24;20012;-84
2024/02/29 08:04:59;;;;;;;3.95;3.05;;;;;;;;;;12490897;23;20015;-85
2024/02/29 08:10:00;;;;;;;4.70;3.30;;;;;;;;;;12596859;23;20017;-83
2024/02/29 08:15:01;;;;;;;10.50;6.43;;;;;;;;;;12696848;23;20010;-84
2024/02/29 08:20:02;;;;;;;;;;;;;;;;;;12684924;23;20023;-82
2024/02/29 08:25:03;;;;;;;6.30;4.78;;;;;;;;;;12732347;23;19930;-84
2024/02/29 08:30:04;;;;;;;;;;;;;;;;;;12671075;23;20041;-84
2024/02/29 08:35:07;;;;;;;8.18;5.43;;;;;;;;;;12669438;23;19917;-84
2024/02/29 08:40:08;;;;;;;5.15;3.75;;;;;;;;;;12665210;23;20010;-79
2024/02/29 08:45:10;;;;;;;7.45;4.40;;;;;;;;;;12664832;23;20409;-85
2024/02/29 08:50:11;;;;;;;6.82;4.50;;;;;;;;;;12693788;23;20089;-84
2024/02/29 08:55:12;;;;;;;5.43;3.60;;;;;;;;;;12694687;23;20078;-80
2024/02/29 09:00:15;;;;;;;5.30;3.63;;;;;;;;;;12673805;23;20002;-80
2024/02/29 09:05:20;;;;;;;4.72;3.10;;;;;;;;;;12699015;23;20022;-81
2024/02/29 09:10:21;;;;;;;5.15;3.83;;;;;;;;;;12690142;23;20025;-81
2024/02/29 09:15:22;;;;;;;5.40;3.22;;;;;;;;;;12688562;23;20002;-81
2024/02/29 09:20:23;;;;;;;;;;;;;;;;;;12663621;23;20066;-80
2024/02/29 09:25:26;;;;;;;5.28;3.50;;;;;;;;;;12683974;23;19984;-80
2024/02/29 09:30:30;;;;;;;4.65;2.90;;;;;;;;;;12656769;23;20016;-79
2024/02/29 09:35:31;;;;;;;4.07;3.03;;;;;;;;;;12691441;23;20320;-83
2024/02/29 09:40:34;;;;;;;5.00;3.45;;;;;;;;;;12667411;23;20038;-83
2024/02/29 09:45:38;;;;;;;5.53;3.60;;;;;;;;;;12665387;23;20034;-83
2024/02/29 09:50:39;;;;;;;5.95;3.90;;;;;;;;;;12666632;23;20093;-84
2024/02/29 09:55:40;;;;;;;6.32;4.35;;;;;;;;;;12662608;23;20456;-83
2024/02/29 10:00:42;;;;;;;5.63;4.13;;;;;;;;;;12672834;23;20009;-83
2024/02/29 10:05:45;;;;;;;5.78;4.05;;;;;;;;;;12666616;23;20010;-84
2024/02/29 10:10:54;;;;;;;6.10;4.45;;;;;;;;;;12666194;23;20014;-85
2024/02/29 10:16:33;;;;;;;6.00;3.85;;;;;;;;;;12690207;23;20002;-85
2024/02/29 10:21:38;;;;;;;;;;;;;;;;;;12666547;23;20070;-85
2024/02/29 10:26:40;;;;;;;6.30;4.35;;;;;;;;;;12665291;23;19901;-85
2024/02/29 10:31:43;;;;;;;7.13;4.50;;;;;;;;;;12664601;23;20029;-85
2024/02/29 10:36:46;;;;;;;6.43;3.90;;;;;;;;;;12683526;23;20012;-85
2024/02/29 10:41:50;;;;;;;4.82;3.40;;;;;;;;;;12662795;23;20010;-84
2024/02/29 10:46:55;;;;;;;6.05;3.92;;;;;;;;;;12640140;23;20014;-85
2024/02/29 10:52:17;;;;;;;4.82;3.38;;;;;;;;;;12660021;23;20325;-80
2024/02/29 11:02:39;;;;;;;5.32;3.35;;;;;;;;;;12657040;23;19924;-79
2024/02/29 11:07:40;;;;;;;10.57;4.10;;;;;;;;;;12627289;23;20063;-78
2024/02/29 11:12:44;;;;;;;;;;;;;;;;;;12600343;23;20003;-80
2024/02/29 11:17:48;;;;;;;5.32;3.58;;;;;;;;;;12628167;23;20251;-81
2024/02/29 11:23:02;;;;;;;5.13;3.38;;;;;;;;;;12625953;23;20046;-80
2024/02/29 11:28:04;;;;;;;7.80;4.70;;;;;;;;;;12604052;23;20067;-80
2024/02/29 11:33:10;;;;;;;5.05;3.22;;;;;;;;;;12634764;23;19999;-79
2024/02/29 11:38:11;;;;;;;5.07;3.72;;;;;;;;;;12610626;23;20003;-79
2024/02/29 11:43:12;;;;;;;;;;;;;;;;;;12619873;23;20006;-78
2024/02/29 11:48:13;;;;;;;6.68;4.25;;;;;;;;;;12633888;23;20285;-80
2024/02/29 11:53:14;;;;;;;6.72;3.97;;;;;;;;;;12635929;23;20032;-79
2024/02/29 11:58:16;;;;;;;6.65;3.65;;;;;;;;;;12618219;23;20029;-79
2024/02/29 12:03:17;;;;;;;5.50;3.65;;;;;;;;;;12636060;23;20035;-79
2024/02/29 12:08:19;;;;;;;6.22;3.45;;;;;;;;;;12629925;23;20002;-80
2024/02/29 12:13:20;;;;;;;4.70;3.40;;;;;;;;;;12629953;23;20006;-79
2024/02/29 12:18:21;;;;;;;5.90;3.88;;;;;;;;;;12631719;23;20002;-79
2024/02/29 12:23:23;;;;;;;;;;;;;;;;;;12605761;23;20457;-80
2024/02/29 12:28:24;;;;;;;5.95;3.90;;;;;;;;;;12603482;23;19937;-84
2024/02/29 12:33:30;;;;;;;7.72;5.50;;;;;;;;;;12605731;23;20009;-80
2024/02/29 12:38:31;;;;;;;7.55;3.13;;;;;;;;;;12630354;23;20317;-80
2024/02/29 12:43:33;;;;;;;6.80;3.08;;;;;;;;;;12602827;23;20038;-80
2024/02/29 12:48:34;;;;;;;3.92;2.78;;;;;;;;;;12633575;23;20006;-79
2024/02/29 12:53:35;;;;;;;;;;;;;;;;;;12631983;23;20447;-79
2024/02/29 12:58:36;;;;;;;4.93;3.38;;;;;;;;;;12601203;23;19907;-77
2024/02/29 13:03:37;;;;;;;5.97;3.40;;;;;;;;;;12625381;23;20046;-79
2024/02/29 13:08:38;;;;;;;4.65;3.20;;;;;;;;;;12601205;23;20086;-79
2024/02/29 13:13:39;;;;;;;5.65;3.10;;;;;;;;;;12575376;23;20010;-79
2024/02/29 13:18:40;;;;;;;4.05;2.90;;;;;;;;;;12625468;23;20009;-79
2024/02/29 13:23:41;;;;;;;4.00;2.20;;;;;;;;;;12599915;23;20012;-79
2024/02/29 13:28:42;;;;;;;;;;;;;;;;;;12625222;23;20333;-79
2024/02/29 13:33:43;;;;;;;4.25;2.40;;;;;;;;;;12624037;23;19908;-80
2024/02/29 13:38:46;;;;;;;4.40;2.80;;;;;;;;;;12625167;23;20037;-78
2024/02/29 13:43:47;;;;;;;5.50;3.85;;;;;;;;;;12624595;23;20318;-79
2024/02/29 13:48:48;;;;;;;7.30;3.30;;;;;;;;;;12602445;23;20006;-78
2024/02/29 13:53:49;;;;;;;4.93;3.40;;;;;;;;;;12602989;23;20014;-79
2024/02/29 13:58:50;;;;;;;;;;;;;;;;;;12604058;23;20072;-77
2024/02/29 14:03:51;;;;;;;3.92;2.67;;;;;;;;;;12652515;23;19994;-77
2024/02/29 14:08:52;;;;;;;4.95;2.83;;;;;;;;;;12607965;23;20020;-78
2024/02/29 14:13:53;;;;;;;;;;;;;;;;;;12628483;23;20007;-77
2024/02/29 14:18:54;;;;;;;3.55;2.70;;;;;;;;;;12609304;23;19950;-78
2024/02/29 14:23:55;;;;;;;2.85;2.17;;;;;;;;;;12599692;23;20093;-77
2024/02/29 14:28:57;;;;;;;5.05;2.78;;;;;;;;;;12603845;23;20393;-79
2024/02/29 14:33:58;;;;;;;3.92;2.78;;;;;;;;;;12622998;23;20002;-78
2024/02/29 14:38:59;;;;;;;3.90;2.55;;;;;;;;;;12600760;23;20014;-78
2024/02/29 14:44:03;;;;;;;;;;;;;;;;;;12628476;23;20007;-78
2024/02/29 14:49:04;;;;;;;4.32;2.90;;;;;;;;;;12625803;23;19928;-79
2024/02/29 14:54:07;;;;;;;4.57;3.05;;;;;;;;;;12629645;23;20062;-78
2024/02/29 14:59:11;;;;;;;4.30;3.25;;;;;;;;;;12628720;23;20081;-79
2024/02/29 15:04:12;;;;;;;5.20;2.78;;;;;;;;;;12637880;23;20416;-79
2024/02/29 15:09:14;;;;;;;;;;;;;;;;;;12644014;23;20002;-78
2024/02/29 15:14:16;;;;;;;5.00;3.13;;;;;;;;;;12626768;23;19901;-77
2024/02/29 15:19:19;;;;;;;5.50;3.15;;;;;;;;;;12658120;23;20002;-79
2024/02/29 15:24:20;;;;;;;4.70;2.60;;;;;;;;;;12612687;23;20013;-77
2024/02/29 15:29:21;;;;;;;3.75;2.78;;;;;;;;;;12603631;23;20049;-79
2024/02/29 15:34:22;;;;;;;4.28;2.65;;;;;;;;;;12635789;23;20014;-78
2024/02/29 15:39:24;;;;;;;5.72;2.80;;;;;;;;;;12627196;23;20302;-78
2024/02/29 15:44:24;;;;;;;;;;;;;;;;;;12602587;23;20066;-78
2024/02/29 15:49:26;;;;;;;5.95;3.95;;;;;;;;;;12628308;23;20338;-79
2024/02/29 15:54:27;;;;;;;4.00;2.72;;;;;;;;;;12625040;23;20002;-77
2024/02/29 15:59:30;;;;;;;5.28;3.63;;;;;;;;;;12653455;23;19990;-79
2024/02/29 16:04:31;;;;;;;4.82;3.53;;;;;;;;;;12670376;23;20011;-78
2024/02/29 16:09:32;;;;;;;4.50;3.42;;;;;;;;;;12670311;23;19994;-78
2024/02/29 16:14:33;;;;;;;;;;;;;;;;;;12654066;23;20002;-81
2024/02/29 16:19:34;;;;;;;6.80;3.85;;;;;;;;;;12620952;23;19901;-80
2024/02/29 16:24:35;;;;;;;;;;;;;;;;;;12668411;23;20005;-81
2024/02/29 16:29:36;;;;;;;5.55;3.40;;;;;;;;;;12619769;23;19916;-82
2024/02/29 16:34:37;;;;;;;4.95;3.25;;;;;;;;;;12609922;23;20002;-82
2024/02/29 16:39:38;;;;;;;5.13;3.50;;;;;;;;;;12633275;23;20006;-82
2024/02/29 16:44:39;;;;;;;3.85;2.78;;;;;;;;;;12639627;23;20077;-82
2024/02/29 16:49:42;;;;;;;4.70;3.00;;;;;;;;;;12641170;23;20011;-81
2024/02/29 16:54:43;;;;;;;5.13;2.90;;;;;;;;;;12621280;23;20146;-82
2024/02/29 16:59:44;;;;;;;4.18;2.80;;;;;;;;;;12606767;23;20078;-81
2024/02/29 17:04:47;;;;;;;4.38;2.55;;;;;;;;;;12605097;23;20018;-82
2024/02/29 17:09:48;;;;;;;3.80;2.70;;;;;;;;;;12607231;23;20010;-81
2024/02/29 17:14:49;;;;;;;3.95;2.47;;;;;;;;;;12629463;23;20006;-79
2024/02/29 17:19:50;;;;;;;7.47;3.20;;;;;;;;;;12602743;23;20007;-82
2024/02/29 17:24:51;;;;;;;5.05;3.10;;;;;;;;;;12607644;23;20017;-81
2024/02/29 17:29:52;;;;;;;4.65;3.03;;;;;;;;;;12606344;23;20014;-82
2024/02/29 17:34:53;;;;;;;;;;;;;;;;;;12606959;23;20377;-83
2024/02/29 17:39:55;;;;;;;3.75;3.05;;;;;;;;;;12638367;23;19905;-82
2024/02/29 17:44:56;;;;;;;5.10;3.30;;;;;;;;;;12634580;23;20006;-82
2024/02/29 17:49:57;;;;;;;5.63;3.75;;;;;;;;;;12637642;23;20002;-83
2024/02/29 17:54:59;;;;;;;10.48;6.63;;;;;;;;;;12603897;23;19998;-82
2024/02/29 18:00:00;;;;;;;10.48;6.47;;;;;;;;;;12633930;23;20003;-82
2024/02/29 18:05:01;;;;;;;;;;;;;;;;;;12615391;23;20033;-82
2024/02/29 18:10:03;;;;;;;9.30;6.15;;;;;;;;;;12673470;23;19913;-81
2024/02/29 18:15:05;;;;;;;9.57;5.97;;;;;;;;;;12646101;23;19995;-82
2024/02/29 18:20:07;;;;;;;6.65;4.10;;;;;;;;;;12670773;23;19990;-82
2024/02/29 18:25:08;;;;;;;5.28;3.72;;;;;;;;;;12645793;23;19991;-82
2024/02/29 18:30:10;;;;;;;5.38;3.55;;;;;;;;;;12640116;23;20017;-82
2024/02/29 18:35:11;;;;;;;4.47;3.20;;;;;;;;;;12634892;23;20006;-82
2024/02/29 18:40:13;;;;;;;6.88;3.17;;;;;;;;;;12634156;23;20033;-82
2024/02/29 18:45:13;;;;;;;;;;;;;;;;;;12634323;23;20002;-82
2024/02/29 18:50:15;;;;;;;5.93;3.70;;;;;;;;;;12610084;23;19948;-82
2024/02/29 18:55:16;;;;;;;6.68;3.85;;;;;;;;;;12643442;23;20002;-81
2024/02/29 19:00:17;;;;;;;8.75;5.22;;;;;;;;;;12649226;23;20002;-82
2024/02/29 19:05:18;;;;;;;;;;;;;;;;;;12637181;23;20010;-81
2024/02/29 19:10:20;;;;;;;8.38;5.25;;;;;;;;;;12633867;23;19957;-81
2024/02/29 19:15:21;;;;;;;10.43;4.85;;;;;;;;;;12663157;23;20006;-80
2024/02/29 19:20:22;;;;;;;8.02;5.00;;;;;;;;;;12663537;23;20002;-81
2024/02/29 19:25:23;;;;;;;5.97;4.10;;;;;;;;;;12622082;23;20062;-82
2024/02/29 19:30:24;;;;;;;6.97;4.15;;;;;;;;;;12639761;23;20035;-81
2024/02/29 19:35:27;;;;;;;6.45;3.72;;;;;;;;;;12605908;23;20094;-82
2024/02/29 19:40:28;;;;;;;5.68;3.97;;;;;;;;;;12634175;23;20030;-81
2024/02/29 19:45:30;;;;;;;6.25;4.25;;;;;;;;;;12606332;23;20013;-82
2024/02/29 19:50:31;;;;;;;6.70;4.60;;;;;;;;;;12633451;23;20006;-81
2024/02/29 19:55:32;;;;;;;6.85;4.28;;;;;;;;;;12639305;23;19983;-82
2024/02/29 20:00:34;;;;;;;5.63;4.07;;;;;;;;;;12643998;23;20018;-81
2024/02/29 20:05:35;;;;;;;6.95;4.78;;;;;;;;;;12643564;23;20039;-82
